Snoqualmie River: Snoqualmie Falls station

back to: Snoqualmie river
Snoqualmie Falls station Summary - (NOAA Hydrograph: SQUW1)
flood stage: 13.43 ft
Latest reading:
Mon09/28 10:40 pm 4.57 ft 1430 cfs (steady)
Past 24hr max:
Sun09/27 10:40 pm 5.51 ft 2305 cfs
Forecasted crests: (published Mon 09/28/20 02:57 pm)

Snoqualmie Falls station Details

Latest Readings

Last 100 Readings:
Mon09/28 10:40 pm 4.57 ft 1430 cfs
Mon09/28 10:35 pm 4.57 ft 1430 cfs
Mon09/28 10:30 pm 4.58 ft 1438 cfs
Mon09/28 10:25 pm 4.58 ft 1438 cfs
Mon09/28 10:20 pm 4.58 ft 1438 cfs
Mon09/28 10:15 pm 4.58 ft 1438 cfs
Mon09/28 10:10 pm 4.59 ft 1446 cfs
Mon09/28 10:05 pm 4.58 ft 1438 cfs
Mon09/28 10:00 pm 4.59 ft 1446 cfs
Mon09/28 09:55 pm 4.59 ft 1446 cfs
Mon09/28 09:50 pm 4.59 ft 1446 cfs
Mon09/28 09:45 pm 4.59 ft 1446 cfs
Mon09/28 09:40 pm 4.59 ft 1446 cfs
Mon09/28 09:35 pm 4.59 ft 1446 cfs
Mon09/28 09:30 pm 4.59 ft 1446 cfs
Mon09/28 09:25 pm 4.6 ft 1454 cfs
Mon09/28 09:20 pm 4.6 ft 1454 cfs
Mon09/28 09:15 pm 4.59 ft 1446 cfs
Mon09/28 09:10 pm 4.59 ft 1446 cfs
Mon09/28 09:05 pm 4.59 ft 1446 cfs
Mon09/28 09:00 pm 4.59 ft 1446 cfs
Mon09/28 08:55 pm 4.59 ft 1446 cfs
Mon09/28 08:50 pm 4.6 ft 1454 cfs
Mon09/28 08:45 pm 4.6 ft 1454 cfs
Mon09/28 08:40 pm 4.59 ft 1446 cfs
Mon09/28 08:35 pm 4.61 ft 1462 cfs
Mon09/28 08:30 pm 4.61 ft 1462 cfs
Mon09/28 08:25 pm 4.61 ft 1462 cfs
Mon09/28 08:20 pm 4.61 ft 1462 cfs
Mon09/28 08:15 pm 4.62 ft 1470 cfs
Mon09/28 08:10 pm 4.62 ft 1470 cfs
Mon09/28 08:05 pm 4.62 ft 1470 cfs
Mon09/28 08:00 pm 4.64 ft 1487 cfs
Mon09/28 07:55 pm 4.63 ft 1479 cfs
Mon09/28 07:50 pm 4.65 ft 1495 cfs
Mon09/28 07:45 pm 4.64 ft 1487 cfs
Mon09/28 07:40 pm 4.65 ft 1495 cfs
Mon09/28 07:35 pm 4.64 ft 1487 cfs
Mon09/28 07:30 pm 4.66 ft 1503 cfs
Mon09/28 07:25 pm 4.66 ft 1503 cfs
Mon09/28 07:20 pm 4.66 ft 1503 cfs
Mon09/28 07:15 pm 4.67 ft 1512 cfs
Mon09/28 07:10 pm 4.67 ft 1512 cfs
Mon09/28 07:05 pm 4.66 ft 1503 cfs
Mon09/28 07:00 pm 4.67 ft 1512 cfs
Mon09/28 06:55 pm 4.68 ft 1520 cfs
Mon09/28 06:50 pm 4.68 ft 1520 cfs
Mon09/28 06:45 pm 4.67 ft 1512 cfs
Mon09/28 06:40 pm 4.68 ft 1520 cfs
Mon09/28 06:35 pm 4.69 ft 1529 cfs
Mon09/28 06:30 pm 4.68 ft 1520 cfs
Mon09/28 06:25 pm 4.7 ft 1537 cfs
Mon09/28 06:20 pm 4.69 ft 1529 cfs
Mon09/28 06:15 pm 4.7 ft 1537 cfs
Mon09/28 06:10 pm 4.69 ft 1529 cfs
Mon09/28 06:05 pm 4.7 ft 1537 cfs
Mon09/28 06:00 pm 4.7 ft 1537 cfs
Mon09/28 05:55 pm 4.7 ft 1537 cfs
Mon09/28 05:50 pm 4.71 ft 1545 cfs
Mon09/28 05:45 pm 4.71 ft 1545 cfs
Mon09/28 05:40 pm 4.71 ft 1545 cfs
Mon09/28 05:35 pm 4.72 ft 1554 cfs
Mon09/28 05:30 pm 4.72 ft 1554 cfs
Mon09/28 05:25 pm 4.71 ft 1545 cfs
Mon09/28 05:20 pm 4.73 ft 1562 cfs
Mon09/28 05:15 pm 4.72 ft 1554 cfs
Mon09/28 05:10 pm 4.73 ft 1562 cfs
Mon09/28 05:05 pm 4.74 ft 1571 cfs
Mon09/28 05:00 pm 4.74 ft 1571 cfs
Mon09/28 04:55 pm 4.75 ft 1579 cfs
Mon09/28 04:50 pm 4.73 ft 1562 cfs
Mon09/28 04:45 pm 4.73 ft 1562 cfs
Mon09/28 04:40 pm 4.74 ft 1571 cfs
Mon09/28 04:35 pm 4.74 ft 1571 cfs
Mon09/28 04:30 pm 4.74 ft 1571 cfs
Mon09/28 04:25 pm 4.75 ft 1579 cfs
Mon09/28 04:20 pm 4.75 ft 1579 cfs
Mon09/28 04:15 pm 4.75 ft 1579 cfs
Mon09/28 04:10 pm 4.76 ft 1588 cfs
Mon09/28 04:05 pm 4.77 ft 1597 cfs
Mon09/28 04:00 pm 4.76 ft 1588 cfs
Mon09/28 03:55 pm 4.77 ft 1597 cfs
Mon09/28 03:50 pm 4.76 ft 1588 cfs
Mon09/28 03:45 pm 4.77 ft 1597 cfs
Mon09/28 03:40 pm 4.77 ft 1597 cfs
Mon09/28 03:35 pm 4.77 ft 1597 cfs
Mon09/28 03:30 pm 4.78 ft 1605 cfs
Mon09/28 03:25 pm 4.77 ft 1597 cfs
Mon09/28 03:20 pm 4.78 ft 1605 cfs
Mon09/28 03:15 pm 4.79 ft 1614 cfs
Mon09/28 03:10 pm 4.79 ft 1614 cfs
Mon09/28 03:05 pm 4.8 ft 1623 cfs
Mon09/28 03:00 pm 4.79 ft 1614 cfs
Mon09/28 02:55 pm 4.79 ft 1614 cfs
Mon09/28 02:50 pm 4.79 ft 1614 cfs
Mon09/28 02:45 pm 4.81 ft 1631 cfs
Mon09/28 02:40 pm 4.8 ft 1623 cfs
Mon09/28 02:35 pm 4.81 ft 1631 cfs
Mon09/28 02:30 pm 4.8 ft 1623 cfs
Mon09/28 02:25 pm 4.8 ft 1623 cfs

Latest Forecasts

Currently Forecasted Readings:
Mon09/28 05:00 pm 4.76 ft 1586 cfs
Mon09/28 11:00 pm 4.61 ft 1465 cfs
Tue09/29 05:00 am 4.49 ft 1362 cfs
Tue09/29 11:00 am 4.38 ft 1272 cfs
Tue09/29 05:00 pm 4.29 ft 1191 cfs
Tue09/29 11:00 pm 4.19 ft 1118 cfs
Wed09/30 05:00 am 4.08 ft 1052 cfs
Wed09/30 11:00 am 3.97 ft 991 cfs
Wed09/30 05:00 pm 3.86 ft 934 cfs
Wed09/30 11:00 pm 3.74 ft 881 cfs
Thu10/01 05:00 am 3.62 ft 831 cfs
Thu10/01 11:00 am 3.53 ft 792 cfs
Thu10/01 05:00 pm 3.47 ft 764 cfs
Thu10/01 11:00 pm 3.4 ft 738 cfs
Fri10/02 05:00 am 3.35 ft 714 cfs
Fri10/02 11:00 am 3.29 ft 693 cfs
Fri10/02 05:00 pm 3.25 ft 674 cfs
Fri10/02 11:00 pm 3.2 ft 656 cfs
Sat10/03 05:00 am 3.16 ft 640 cfs
Sat10/03 11:00 am 3.12 ft 625 cfs
Sat10/03 05:00 pm 3.09 ft 611 cfs
Sat10/03 11:00 pm 3.06 ft 599 cfs
Sun10/04 05:00 am 3.03 ft 588 cfs
Sun10/04 11:00 am 3.0 ft 579 cfs
Sun10/04 05:00 pm 2.98 ft 569 cfs
Sun10/04 11:00 pm 2.96 ft 561 cfs
Mon10/05 05:00 am 2.95 ft 560 cfs
Mon10/05 11:00 am 2.95 ft 557 cfs
Mon10/05 05:00 pm 2.91 ft 544 cfs
Mon10/05 11:00 pm 2.89 ft 535 cfs
Tue10/06 05:00 am 2.87 ft 530 cfs
Tue10/06 11:00 am 2.86 ft 525 cfs
Tue10/06 05:00 pm 2.85 ft 521 cfs
Tue10/06 11:00 pm 2.84 ft 519 cfs
Wed10/07 05:00 am 2.84 ft 517 cfs
Wed10/07 11:00 am 2.83 ft 513 cfs
Wed10/07 05:00 pm 2.82 ft 510 cfs
Wed10/07 11:00 pm 2.81 ft 508 cfs
Thu10/08 05:00 am 2.81 ft 506 cfs

Snoqualmie River flood gauge data supplied by the
National Weather Service Northwest River Forecast Center.

Sign up for Floodzilla alerts.